Time;durP1;ratioP1;P1;durP2;ratioP2;P2;SDS_P1;SDS_P2;PMS_P1;PMS_P2;Temp;Humidity;BMP_temperature;BMP_pressure;BME280_temperature;BME280_humidity;BME280_pressure;Samples;Min_cycle;Max_cycle;Signal;HPM_P1;HPM_P2
2022/11/28 00:01:55;;;;;;;;;17.75;14.75;;;;;;;;4996684;28;51045;-54
2022/11/28 00:04:40;;;;;;;;;20.25;14.50;;;;;;;;4996171;28;51754;-54
2022/11/28 00:07:24;;;;;;;;;19.75;14.75;;;;;;;;4995687;28;51034;-54
2022/11/28 00:10:09;;;;;;;;;15.75;14.50;;;;;;;;4996341;28;51075;-53
2022/11/28 00:12:53;;;;;;;;;16.50;14.00;;;;;;;;4995977;28;51243;-57
2022/11/28 00:15:38;;;;;;;;;15.00;14.50;;;;;;;;4996028;28;51668;-53
2022/11/28 00:18:22;;;;;;;;;19.50;15.50;;;;;;;;4995699;28;51153;-56
2022/11/28 00:21:08;;;;;;;;;19.25;17.25;;;;;;;;4996645;28;51075;-57
2022/11/28 00:23:53;;;;;;;;;13.50;13.00;;;;;;;;4996219;28;51536;-56
2022/11/28 00:26:38;;;;;;;;;16.50;15.25;;;;;;;;4995729;28;51138;-58
2022/11/28 00:29:22;;;;;;;;;21.00;15.25;;;;;;;;4995782;28;51483;-57
2022/11/28 00:32:07;;;;;;;;;23.00;15.75;;;;;;;;4996844;28;51115;-54
2022/11/28 00:34:51;;;;;;;;;18.25;15.00;;;;;;;;4999463;28;51113;-53
2022/11/28 00:37:35;;;;;;;;;16.00;15.00;;;;;;;;5082516;27;51030;-54
2022/11/28 00:40:21;;;;;;;;;17.50;13.00;;;;;;;;5082877;27;51626;-58
2022/11/28 00:43:05;;;;;;;;;13.25;13.25;;;;;;;;5082526;27;51245;-55
2022/11/28 00:45:49;;;;;;;;;17.00;15.75;;;;;;;;5082897;27;51028;-54
2022/11/28 00:48:34;;;;;;;;;18.00;15.00;;;;;;;;5082225;27;51093;-52
2022/11/28 00:51:20;;;;;;;;;18.50;14.00;;;;;;;;5082747;27;51110;-55
2022/11/28 00:54:05;;;;;;;;;25.25;17.50;;;;;;;;5082676;27;51216;-53
2022/11/28 00:56:49;;;;;;;;;20.00;14.25;;;;;;;;5082239;27;51090;-55
2022/11/28 00:59:33;;;;;;;;;17.25;14.75;;;;;;;;5082480;27;51150;-54
2022/11/28 01:02:18;;;;;;;;;18.25;14.00;;;;;;;;5088197;27;51135;-57
2022/11/28 01:05:02;;;;;;;;;18.50;14.75;;;;;;;;5082233;27;51182;-54
2022/11/28 01:07:46;;;;;;;;;23.75;17.75;;;;;;;;5081684;27;51141;-52
2022/11/28 01:10:31;;;;;;;;;23.75;15.50;;;;;;;;5082212;27;51137;-52
2022/11/28 01:13:15;;;;;;;;;16.75;12.00;;;;;;;;5081939;27;51097;-52
2022/11/28 01:16:00;;;;;;;;;19.75;14.75;;;;;;;;5081906;27;51248;-55
2022/11/28 01:18:44;;;;;;;;;13.75;12.75;;;;;;;;5081829;27;51030;-56
2022/11/28 01:21:29;;;;;;;;;19.50;14.00;;;;;;;;5081982;27;51093;-53
2022/11/28 01:24:14;;;;;;;;;16.00;11.75;;;;;;;;5082337;27;51047;-54
2022/11/28 01:26:58;;;;;;;;;19.00;13.00;;;;;;;;5081732;27;51017;-53
2022/11/28 01:29:42;;;;;;;;;18.50;13.25;;;;;;;;5081763;27;51180;-55
2022/11/28 01:32:27;;;;;;;;;15.50;12.50;;;;;;;;5081721;27;51188;-56
2022/11/28 01:35:11;;;;;;;;;18.50;15.75;;;;;;;;5073783;27;50994;-54
2022/11/28 01:37:56;;;;;;;;;18.50;15.25;;;;;;;;4997831;28;52010;-54
2022/11/28 01:40:44;;;;;;;;;16.75;14.00;;;;;;;;4998262;28;51179;-54
2022/11/28 01:43:29;;;;;;;;;15.00;13.75;;;;;;;;4998310;28;51339;-55
2022/11/28 01:46:13;;;;;;;;;16.75;15.00;;;;;;;;4997867;28;51244;-53
2022/11/28 01:49:01;;;;;;;;;15.25;12.00;;;;;;;;4998213;28;51147;-53
2022/11/28 01:51:48;;;;;;;;;15.75;13.50;;;;;;;;4997889;28;51113;-56
2022/11/28 01:54:32;;;;;;;;;17.75;15.25;;;;;;;;4998185;28;51504;-55
2022/11/28 01:57:19;;;;;;;;;20.50;12.75;;;;;;;;4997842;28;51045;-54
2022/11/28 02:00:07;;;;;;;;;18.50;14.75;;;;;;;;4997751;28;51018;-54
2022/11/28 02:02:55;;;;;;;;;14.50;14.50;;;;;;;;4997724;28;51098;-54
2022/11/28 02:05:39;;;;;;;;;16.50;16.50;;;;;;;;4997786;28;51196;-52
2022/11/28 02:08:24;;;;;;;;;17.75;15.75;;;;;;;;4997922;28;51489;-51
2022/11/28 02:11:26;;;;;;;;;16.75;16.25;;;;;;;;4997319;28;51128;-52
2022/11/28 02:14:28;;;;;;;;;19.00;16.75;;;;;;;;4997660;28;51153;-55
2022/11/28 02:17:37;;;;;;;;;20.00;14.75;;;;;;;;4997225;28;51519;-54
2022/11/28 02:20:21;;;;;;;;;14.50;13.25;;;;;;;;4997564;28;51245;-54
2022/11/28 02:23:18;;;;;;;;;21.00;15.75;;;;;;;;4997299;28;51092;-52
2022/11/28 02:26:03;;;;;;;;;5.25;3.25;;;;;;;;4997610;28;51147;-57
2022/11/28 02:28:53;;;;;;;;;18.00;14.00;;;;;;;;5017330;28;51106;-54
2022/11/28 02:31:45;;;;;;;;;14.75;14.75;;;;;;;;5017562;28;51175;-54
2022/11/28 02:34:39;;;;;;;;;16.50;16.25;;;;;;;;5002316;28;51552;-55
2022/11/28 02:37:33;;;;;;;;;19.00;14.50;;;;;;;;4996989;28;51440;-55
2022/11/28 02:40:20;;;;;;;;;16.00;13.75;;;;;;;;4997348;28;51140;-55
2022/11/28 02:43:27;;;;;;;;;17.00;15.25;;;;;;;;4997231;28;51240;-53
2022/11/28 02:46:11;;;;;;;;;19.75;14.50;;;;;;;;4997000;28;51463;-53
2022/11/28 02:49:02;;;;;;;;;21.50;17.50;;;;;;;;4997449;28;51136;-54
2022/11/28 02:51:52;;;;;;;;;19.50;18.75;;;;;;;;4997867;28;51027;-52
2022/11/28 02:54:37;;;;;;;;;22.75;18.25;;;;;;;;4996413;28;51060;-58
2022/11/28 02:57:22;;;;;;;;;19.50;14.50;;;;;;;;4996837;28;51053;-54
2022/11/28 03:00:25;;;;;;;;;21.25;16.50;;;;;;;;4997464;28;51494;-56
2022/11/28 03:03:09;;;;;;;;;15.75;15.00;;;;;;;;4996813;28;51108;-52
2022/11/28 03:05:53;;;;;;;;;17.50;17.25;;;;;;;;4997117;28;51066;-52
2022/11/28 03:08:40;;;;;;;;;16.25;14.50;;;;;;;;4996422;28;51003;-54
2022/11/28 03:11:38;;;;;;;;;19.00;15.00;;;;;;;;4996886;28;51140;-57
2022/11/28 03:14:35;;;;;;;;;11.75;6.00;;;;;;;;4996677;28;51149;-52
2022/11/28 03:17:19;;;;;;;;;14.75;14.75;;;;;;;;4997032;28;51108;-58
2022/11/28 03:20:11;;;;;;;;;17.25;14.75;;;;;;;;4996635;28;51180;-55
2022/11/28 03:23:16;;;;;;;;;15.75;15.50;;;;;;;;4996714;28;51172;-55
2022/11/28 03:26:06;;;;;;;;;16.75;16.00;;;;;;;;4996749;28;51201;-52
2022/11/28 03:29:00;;;;;;;;;15.50;15.00;;;;;;;;4996512;28;51154;-55
2022/11/28 03:31:48;;;;;;;;;15.00;13.00;;;;;;;;4996669;28;51358;-50
2022/11/28 03:34:34;;;;;;;;;17.75;14.50;;;;;;;;4996327;28;51458;-54
2022/11/28 03:37:45;;;;;;;;;18.00;14.00;;;;;;;;5016010;27;51022;-52
2022/11/28 03:40:35;;;;;;;;;19.25;15.00;;;;;;;;5016378;28;51205;-51
2022/11/28 03:43:24;;;;;;;;;21.50;18.25;;;;;;;;4991868;28;51141;-53
2022/11/28 03:46:12;;;;;;;;;17.00;14.00;;;;;;;;4996250;28;51331;-57
2022/11/28 03:48:58;;;;;;;;;19.00;16.00;;;;;;;;4996657;27;51306;-53
2022/11/28 03:51:47;;;;;;;;;20.75;16.50;;;;;;;;4996312;28;51549;-54
2022/11/28 03:54:36;;;;;;;;;16.50;12.00;;;;;;;;4996363;28;51036;-55
2022/11/28 03:57:31;;;;;;;;;15.00;15.00;;;;;;;;4995465;28;51053;-55
2022/11/28 04:00:15;;;;;;;;;15.00;13.50;;;;;;;;4996162;28;51353;-55
2022/11/28 04:03:02;;;;;;;;;19.50;15.50;;;;;;;;4996103;28;51545;-54
2022/11/28 04:06:00;;;;;;;;;16.25;14.25;;;;;;;;4995875;28;51098;-53
2022/11/28 04:09:04;;;;;;;;;19.75;15.25;;;;;;;;4999980;28;51067;-54
2022/11/28 04:11:53;;;;;;;;;20.75;16.75;;;;;;;;4999389;28;51460;-55
2022/11/28 04:14:40;;;;;;;;;15.75;15.00;;;;;;;;5000267;28;51134;-52
2022/11/28 04:17:28;;;;;;;;;19.00;15.00;;;;;;;;4999672;28;51178;-51
2022/11/28 04:20:15;;;;;;;;;16.50;16.25;;;;;;;;4998985;27;51041;-56
2022/11/28 04:23:02;;;;;;;;;20.00;14.75;;;;;;;;4999558;27;51120;-55
2022/11/28 04:25:59;;;;;;;;;22.50;18.75;;;;;;;;4999496;27;51321;-57
2022/11/28 04:28:45;;;;;;;;;28.75;21.25;;;;;;;;4999483;27;51464;-53
2022/11/28 04:31:31;;;;;;;;;26.00;21.50;;;;;;;;4999351;28;51406;-51
2022/11/28 04:34:17;;;;;;;;;24.75;21.75;;;;;;;;4999140;28;51538;-55
2022/11/28 04:37:03;;;;;;;;;26.50;19.75;;;;;;;;4998677;28;51033;-51
2022/11/28 04:39:48;;;;;;;;;20.25;19.25;;;;;;;;5027026;27;51021;-54
2022/11/28 04:42:36;;;;;;;;;26.50;20.00;;;;;;;;5019057;28;51439;-51
2022/11/28 04:45:28;;;;;;;;;19.50;17.00;;;;;;;;5018276;28;51014;-53
2022/11/28 04:48:13;;;;;;;;;25.50;18.50;;;;;;;;5018733;28;51044;-55
2022/11/28 04:51:11;;;;;;;;;24.75;21.00;;;;;;;;5018700;28;51101;-54
2022/11/28 04:53:58;;;;;;;;;29.75;20.50;;;;;;;;5018905;28;51150;-51
2022/11/28 04:56:44;;;;;;;;;29.00;23.00;;;;;;;;5018452;28;51115;-57
2022/11/28 04:59:30;;;;;;;;;31.25;25.25;;;;;;;;5018673;28;51161;-53
2022/11/28 05:02:15;;;;;;;;;26.75;23.75;;;;;;;;5001274;28;52406;-56
2022/11/28 05:05:00;;;;;;;;;28.75;24.50;;;;;;;;4998692;28;51019;-53
2022/11/28 05:07:44;;;;;;;;;27.50;25.75;;;;;;;;4998910;28;51582;-54
2022/11/28 05:10:29;;;;;;;;;30.25;23.50;;;;;;;;4998370;28;51100;-54
2022/11/28 05:13:13;;;;;;;;;27.00;23.00;;;;;;;;4998747;28;51080;-52
2022/11/28 05:15:59;;;;;;;;;29.25;24.75;;;;;;;;4998586;28;51196;-51
2022/11/28 05:18:43;;;;;;;;;30.00;25.50;;;;;;;;4998296;28;51180;-52
2022/11/28 05:21:27;;;;;;;;;29.75;23.25;;;;;;;;4998215;28;51182;-52
2022/11/28 05:24:11;;;;;;;;;29.25;25.25;;;;;;;;4998623;28;50924;-50
2022/11/28 05:26:56;;;;;;;;;32.00;24.50;;;;;;;;4998291;28;51173;-56
2022/11/28 05:29:43;;;;;;;;;27.75;24.25;;;;;;;;4998112;28;51115;-55
2022/11/28 05:32:30;;;;;;;;;33.25;29.25;;;;;;;;4998114;28;51169;-52
2022/11/28 05:35:14;;;;;;;;;28.75;26.50;;;;;;;;4998278;28;51168;-55
2022/11/28 05:37:59;;;;;;;;;34.50;29.75;;;;;;;;4998519;28;51057;-56
2022/11/28 05:40:43;;;;;;;;;33.75;31.00;;;;;;;;4997746;28;51136;-56
2022/11/28 05:43:28;;;;;;;;;31.25;27.75;;;;;;;;4983408;28;51583;-55
2022/11/28 05:46:12;;;;;;;;;37.25;29.00;;;;;;;;4998006;28;51108;-53
2022/11/28 05:48:57;;;;;;;;;37.00;28.75;;;;;;;;4998059;28;51003;-55
2022/11/28 05:51:42;;;;;;;;;35.50;29.50;;;;;;;;4997679;28;51118;-55
2022/11/28 05:54:26;;;;;;;;;35.50;29.25;;;;;;;;4998072;28;51135;-54
2022/11/28 05:57:10;;;;;;;;;33.25;27.75;;;;;;;;4998069;28;51500;-55
2022/11/28 05:59:55;;;;;;;;;32.25;28.00;;;;;;;;4997578;28;51212;-55
2022/11/28 06:02:40;;;;;;;;;38.75;29.00;;;;;;;;4997835;28;51011;-52
2022/11/28 06:05:25;;;;;;;;;34.75;29.75;;;;;;;;5000261;28;51072;-54
2022/11/28 06:08:10;;;;;;;;;43.75;30.00;;;;;;;;4998003;28;51215;-51
2022/11/28 06:10:56;;;;;;;;;44.75;34.00;;;;;;;;4997530;28;51084;-55
2022/11/28 06:13:44;;;;;;;;;38.75;32.00;;;;;;;;4998334;28;51801;-57
2022/11/28 06:16:29;;;;;;;;;35.00;32.00;;;;;;;;4997570;28;52140;-53
2022/11/28 06:19:13;;;;;;;;;48.50;37.50;;;;;;;;4997592;28;52108;-51
2022/11/28 06:21:58;;;;;;;;;49.75;39.50;;;;;;;;4997459;28;51783;-50
2022/11/28 06:24:42;;;;;;;;;46.50;36.00;;;;;;;;4997220;28;51164;-56
2022/11/28 06:27:27;;;;;;;;;48.50;37.75;;;;;;;;4997797;28;51042;-52
2022/11/28 06:30:12;;;;;;;;;43.50;34.25;;;;;;;;4996727;28;51132;-56
2022/11/28 06:32:56;;;;;;;;;45.50;35.50;;;;;;;;4997677;28;51125;-55
2022/11/28 06:35:40;;;;;;;;;46.50;35.50;;;;;;;;4997274;28;51051;-55
2022/11/28 06:38:25;;;;;;;;;49.75;38.75;;;;;;;;4997715;28;51100;-54
2022/11/28 06:41:10;;;;;;;;;43.75;36.00;;;;;;;;4997128;28;51070;-58
2022/11/28 06:43:55;;;;;;;;;45.75;36.75;;;;;;;;4997185;28;51082;-55
2022/11/28 06:46:40;;;;;;;;;44.00;37.75;;;;;;;;4997181;28;51167;-56
2022/11/28 06:49:24;;;;;;;;;51.00;36.25;;;;;;;;4995308;28;51024;-53
2022/11/28 06:52:08;;;;;;;;;49.00;39.50;;;;;;;;4996776;28;51058;-55
2022/11/28 06:54:53;;;;;;;;;52.50;41.25;;;;;;;;4996912;28;51137;-57
2022/11/28 06:57:38;;;;;;;;;51.50;40.25;;;;;;;;4996947;28;52242;-55
2022/11/28 07:00:22;;;;;;;;;53.00;42.00;;;;;;;;4996515;28;51018;-55
2022/11/28 07:03:06;;;;;;;;;50.25;40.00;;;;;;;;4996974;28;50979;-55
2022/11/28 07:05:51;;;;;;;;;57.75;43.00;;;;;;;;4996601;28;51433;-54
2022/11/28 07:08:36;;;;;;;;;55.25;42.00;;;;;;;;4997027;28;53002;-54
2022/11/28 07:11:22;;;;;;;;;34.75;27.25;;;;;;;;4996821;28;51711;-56
2022/11/28 07:14:06;;;;;;;;;54.00;40.75;;;;;;;;4996945;28;51428;-55
2022/11/28 07:16:50;;;;;;;;;48.75;39.25;;;;;;;;4996309;28;51458;-54
2022/11/28 07:19:35;;;;;;;;;49.50;38.50;;;;;;;;4996828;28;51127;-55
2022/11/28 07:22:21;;;;;;;;;48.25;38.75;;;;;;;;4996485;28;51069;-56
2022/11/28 07:25:05;;;;;;;;;49.25;40.25;;;;;;;;4996372;28;51124;-58
2022/11/28 07:27:49;;;;;;;;;43.00;35.00;;;;;;;;4995998;28;51016;-54
2022/11/28 07:30:34;;;;;;;;;46.50;35.75;;;;;;;;4996204;28;51194;-53
2022/11/28 07:33:18;;;;;;;;;44.00;35.25;;;;;;;;4996190;28;51221;-56
2022/11/28 07:36:04;;;;;;;;;43.25;35.75;;;;;;;;4996375;28;51489;-54
2022/11/28 07:38:52;;;;;;;;;48.00;37.75;;;;;;;;4996546;28;51168;-57
2022/11/28 07:41:36;;;;;;;;;46.50;38.25;;;;;;;;4998037;28;51586;-55
2022/11/28 07:44:21;;;;;;;;;49.50;38.25;;;;;;;;4999643;28;51096;-54
2022/11/28 07:47:05;;;;;;;;;45.50;36.50;;;;;;;;5000229;28;51719;-57
2022/11/28 07:49:50;;;;;;;;;47.00;37.50;;;;;;;;4999775;28;51152;-55
2022/11/28 07:52:34;;;;;;;;;47.50;37.00;;;;;;;;4994836;28;51179;-56
2022/11/28 07:55:18;;;;;;;;;42.50;33.25;;;;;;;;4999734;28;51121;-53
2022/11/28 07:58:03;;;;;;;;;45.75;36.00;;;;;;;;4999655;28;51244;-53
2022/11/28 08:00:47;;;;;;;;;44.50;35.25;;;;;;;;4999870;28;51327;-54
2022/11/28 08:03:32;;;;;;;;;44.50;35.25;;;;;;;;4999721;28;51144;-54
2022/11/28 08:06:17;;;;;;;;;43.50;35.00;;;;;;;;4999502;28;51052;-55
2022/11/28 08:09:01;;;;;;;;;35.75;29.25;;;;;;;;4999275;28;51084;-55
2022/11/28 08:11:45;;;;;;;;;24.50;21.75;;;;;;;;4999656;28;51448;-53
2022/11/28 08:14:30;;;;;;;;;23.25;21.00;;;;;;;;4999380;28;51024;-55
2022/11/28 08:17:15;;;;;;;;;18.50;17.00;;;;;;;;4999687;28;51049;-52
2022/11/28 08:19:59;;;;;;;;;29.75;28.00;;;;;;;;4999174;28;51064;-56
2022/11/28 08:22:44;;;;;;;;;26.50;25.75;;;;;;;;4999408;28;51081;-54
2022/11/28 08:25:28;;;;;;;;;38.75;32.25;;;;;;;;4999188;28;51230;-56
2022/11/28 08:28:13;;;;;;;;;31.75;28.00;;;;;;;;4999327;28;51003;-55
2022/11/28 08:31:00;;;;;;;;;31.25;27.75;;;;;;;;5006613;27;51468;-58
2022/11/28 08:33:45;;;;;;;;;25.75;21.75;;;;;;;;5018919;28;51105;-55
2022/11/28 08:36:30;;;;;;;;;17.50;15.50;;;;;;;;5018586;27;51171;-56
2022/11/28 08:39:14;;;;;;;;;19.75;18.00;;;;;;;;5018743;28;51143;-57
2022/11/28 08:41:59;;;;;;;;;23.75;20.25;;;;;;;;5019191;28;51067;-57
2022/11/28 08:44:43;;;;;;;;;19.25;17.25;;;;;;;;5018477;28;51081;-56
2022/11/28 08:47:28;;;;;;;;;19.75;17.75;;;;;;;;5018893;28;51069;-59
2022/11/28 08:50:12;;;;;;;;;17.50;17.00;;;;;;;;5018909;28;51155;-55
2022/11/28 08:52:56;;;;;;;;;21.25;19.00;;;;;;;;5017770;28;51100;-57
2022/11/28 08:55:43;;;;;;;;;26.50;22.50;;;;;;;;5018450;28;51118;-57
2022/11/28 08:58:27;;;;;;;;;20.00;19.75;;;;;;;;5018514;28;51046;-57
2022/11/28 09:01:16;;;;;;;;;21.50;18.25;;;;;;;;5018546;28;50989;-52
2022/11/28 09:04:01;;;;;;;;;22.25;17.50;;;;;;;;5018163;28;51180;-56
2022/11/28 09:06:45;;;;;;;;;21.50;16.50;;;;;;;;4999967;28;51360;-57
2022/11/28 09:09:30;;;;;;;;;15.50;13.25;;;;;;;;4998502;28;51220;-58
2022/11/28 09:12:15;;;;;;;;;19.75;19.25;;;;;;;;4998409;28;51231;-56
2022/11/28 09:14:59;;;;;;;;;23.75;18.00;;;;;;;;4998283;28;51195;-52
2022/11/28 09:17:44;;;;;;;;;18.25;15.50;;;;;;;;4998793;28;51053;-56
2022/11/28 09:20:28;;;;;;;;;27.75;26.75;;;;;;;;4998415;27;51423;-56
2022/11/28 09:23:13;;;;;;;;;16.25;13.50;;;;;;;;4998235;28;51173;-56
2022/11/28 09:25:57;;;;;;;;;17.75;14.75;;;;;;;;4998510;27;51489;-56
2022/11/28 09:28:42;;;;;;;;;16.75;15.75;;;;;;;;4994551;27;51216;-51
2022/11/28 09:31:26;;;;;;;;;20.00;16.00;;;;;;;;4998429;28;51039;-52
2022/11/28 09:34:11;;;;;;;;;14.50;13.75;;;;;;;;4994882;28;51096;-48
2022/11/28 09:36:55;;;;;;;;;20.00;18.00;;;;;;;;4998379;27;51184;-49
2022/11/28 09:39:41;;;;;;;;;15.75;15.25;;;;;;;;4998208;28;51073;-49
2022/11/28 09:42:37;;;;;;;;;17.25;15.25;;;;;;;;4998348;28;51079;-48
2022/11/28 09:45:23;;;;;;;;;16.00;14.00;;;;;;;;4998000;27;51005;-49
2022/11/28 09:48:22;;;;;;;;;17.75;14.25;;;;;;;;4996851;28;51147;-55
2022/11/28 09:51:25;;;;;;;;;14.00;10.00;;;;;;;;5011619;28;51081;-49
2022/11/28 09:54:16;;;;;;;;;19.75;15.75;;;;;;;;5016559;28;51162;-48
2022/11/28 09:57:02;;;;;;;;;13.75;13.25;;;;;;;;5017080;28;52123;-50
2022/11/28 09:59:47;;;;;;;;;15.25;14.75;;;;;;;;5016365;28;51422;-50
2022/11/28 10:02:37;;;;;;;;;19.00;16.25;;;;;;;;5017159;28;51092;-53
2022/11/28 10:05:33;;;;;;;;;16.25;16.25;;;;;;;;5016468;28;51120;-49
2022/11/28 10:08:23;;;;;;;;;16.25;15.75;;;;;;;;5018049;28;51059;-49
2022/11/28 10:11:26;;;;;;;;;20.50;17.00;;;;;;;;5017650;28;51538;-49
2022/11/28 10:14:29;;;;;;;;;23.50;18.00;;;;;;;;5017730;28;51107;-49
2022/11/28 10:17:22;;;;;;;;;16.00;14.50;;;;;;;;5017817;28;51162;-51
2022/11/28 10:20:13;;;;;;;;;15.50;13.50;;;;;;;;5017470;28;50989;-51
2022/11/28 10:23:06;;;;;;;;;17.50;17.00;;;;;;;;5017870;28;51131;-49
2022/11/28 10:25:53;;;;;;;;;17.75;15.00;;;;;;;;5017319;28;51598;-48
2022/11/28 10:28:41;;;;;;;;;18.50;15.75;;;;;;;;5017235;28;50993;-50
2022/11/28 10:31:38;;;;;;;;;15.75;13.25;;;;;;;;5017597;28;51204;-50
2022/11/28 10:34:31;;;;;;;;;17.75;15.25;;;;;;;;4993836;28;51016;-51
2022/11/28 10:37:15;;;;;;;;;14.50;14.50;;;;;;;;4997283;28;51603;-52
2022/11/28 10:40:20;;;;;;;;;21.75;16.00;;;;;;;;4997482;28;51060;-52
2022/11/28 10:43:10;;;;;;;;;15.25;13.00;;;;;;;;4994247;28;51054;-53
2022/11/28 10:46:12;;;;;;;;;16.00;14.25;;;;;;;;4996398;28;51074;-51
2022/11/28 10:49:15;;;;;;;;;14.25;12.50;;;;;;;;4987967;28;51056;-49
2022/11/28 10:52:11;;;;;;;;;15.00;13.50;;;;;;;;4996867;28;51491;-48
2022/11/28 10:55:17;;;;;;;;;17.00;15.25;;;;;;;;4985527;28;51222;-49
2022/11/28 10:58:20;;;;;;;;;16.75;14.75;;;;;;;;4983893;27;51254;-51
2022/11/28 11:01:04;;;;;;;;;20.50;14.50;;;;;;;;4994542;28;51171;-50
2022/11/28 11:03:49;;;;;;;;;12.50;12.50;;;;;;;;5009022;28;51377;-50
2022/11/28 11:06:36;;;;;;;;;10.75;5.75;;;;;;;;5014571;28;51112;-52
2022/11/28 11:09:20;;;;;;;;;18.25;13.50;;;;;;;;5014313;28;51492;-50
2022/11/28 11:12:10;;;;;;;;;15.75;12.25;;;;;;;;5014162;28;51176;-51
2022/11/28 11:14:54;;;;;;;;;15.75;15.25;;;;;;;;5015472;28;51199;-52
2022/11/28 11:17:39;;;;;;;;;13.50;13.50;;;;;;;;5016204;28;51150;-51
2022/11/28 11:20:28;;;;;;;;;15.25;13.75;;;;;;;;5016654;28;51421;-47
2022/11/28 11:23:17;;;;;;;;;17.50;15.50;;;;;;;;5016175;28;51055;-49
2022/11/28 11:26:02;;;;;;;;;15.75;15.75;;;;;;;;5016082;28;51013;-51
2022/11/28 11:28:49;;;;;;;;;19.75;15.50;;;;;;;;5016036;28;51292;-48
2022/11/28 11:31:45;;;;;;;;;21.00;14.50;;;;;;;;5016478;28;51261;-50
2022/11/28 11:34:33;;;;;;;;;14.75;14.75;;;;;;;;5016545;28;51052;-48
2022/11/28 11:37:25;;;;;;;;;17.00;15.50;;;;;;;;5015721;27;51052;-48
2022/11/28 11:40:28;;;;;;;;;18.00;15.75;;;;;;;;5009688;27;51151;-52
2022/11/28 11:43:25;;;;;;;;;20.00;17.75;;;;;;;;4995800;28;51136;-48
2022/11/28 11:46:09;;;;;;;;;19.25;17.50;;;;;;;;4995565;28;51017;-48
2022/11/28 11:48:54;;;;;;;;;16.00;16.00;;;;;;;;4995942;27;51249;-49
2022/11/28 11:51:38;;;;;;;;;16.25;13.50;;;;;;;;5005811;28;51270;-49
2022/11/28 11:54:22;;;;;;;;;13.25;10.75;;;;;;;;4994089;27;51576;-47
2022/11/28 11:57:10;;;;;;;;;20.75;17.00;;;;;;;;4995208;27;51396;-50
2022/11/28 11:59:57;;;;;;;;;19.75;15.00;;;;;;;;4996246;28;51385;-47
2022/11/28 12:02:51;;;;;;;;;17.25;15.00;;;;;;;;4995980;27;51198;-49
2022/11/28 12:05:38;;;;;;;;;18.00;14.50;;;;;;;;4995199;27;51150;-46
2022/11/28 12:08:41;;;;;;;;;14.75;13.25;;;;;;;;4995619;28;51453;-50
2022/11/28 12:11:34;;;;;;;;;17.25;13.75;;;;;;;;4992181;28;51048;-48
2022/11/28 12:14:33;;;;;;;;;18.75;13.75;;;;;;;;4995818;28;51130;-48
2022/11/28 12:17:29;;;;;;;;;22.50;18.00;;;;;;;;4996267;28;51053;-48
2022/11/28 12:20:29;;;;;;;;;15.25;15.00;;;;;;;;4995945;28;51423;-48
2022/11/28 12:23:31;;;;;;;;;18.75;16.00;;;;;;;;4996109;28;51043;-48
2022/11/28 12:26:19;;;;;;;;;17.75;16.00;;;;;;;;4995960;28;51239;-47
2022/11/28 12:29:13;;;;;;;;;23.25;16.25;;;;;;;;4997929;28;51163;-46
2022/11/28 12:32:06;;;;;;;;;17.25;16.75;;;;;;;;4996683;27;51048;-51
2022/11/28 12:35:09;;;;;;;;;20.50;17.75;;;;;;;;4999340;28;51348;-51
2022/11/28 12:37:59;;;;;;;;;19.50;17.25;;;;;;;;4998929;27;51621;-48
2022/11/28 12:40:53;;;;;;;;;17.25;17.25;;;;;;;;5007497;28;51068;-49
2022/11/28 12:43:55;;;;;;;;;23.00;20.00;;;;;;;;5019836;28;51104;-48
2022/11/28 12:46:47;;;;;;;;;18.00;17.75;;;;;;;;5020133;28;51149;-48
2022/11/28 12:49:56;;;;;;;;;17.75;14.50;;;;;;;;5019811;28;51132;-48
2022/11/28 12:53:05;;;;;;;;;22.25;18.75;;;;;;;;5020058;28;51551;-47
2022/11/28 12:56:02;;;;;;;;;21.75;19.25;;;;;;;;5018717;28;51221;-48
2022/11/28 12:58:58;;;;;;;;;17.00;14.25;;;;;;;;5005086;27;51182;-50
2022/11/28 13:01:46;;;;;;;;;19.75;17.25;;;;;;;;4998262;28;51478;-47
2022/11/28 13:04:30;;;;;;;;;22.00;18.75;;;;;;;;4999263;28;51181;-48
2022/11/28 13:07:21;;;;;;;;;18.25;15.25;;;;;;;;4999666;27;51257;-49
2022/11/28 13:10:17;;;;;;;;;17.50;16.00;;;;;;;;4999359;28;51156;-48
2022/11/28 13:13:09;;;;;;;;;19.25;13.25;;;;;;;;4998888;28;51110;-48
2022/11/28 13:15:56;;;;;;;;;19.00;19.00;;;;;;;;4998828;27;51105;-49
2022/11/28 13:18:43;;;;;;;;;18.50;16.50;;;;;;;;4998734;27;50955;-48
2022/11/28 13:21:46;;;;;;;;;21.25;18.25;;;;;;;;4998610;28;51143;-47
2022/11/28 13:24:38;;;;;;;;;19.75;16.25;;;;;;;;4999099;28;51178;-49
2022/11/28 13:27:35;;;;;;;;;21.25;17.00;;;;;;;;4998076;27;51484;-48
2022/11/28 13:30:21;;;;;;;;;20.75;18.00;;;;;;;;4998413;27;51684;-48
2022/11/28 13:33:11;;;;;;;;;18.75;17.75;;;;;;;;4998409;28;51125;-50
2022/11/28 13:35:57;;;;;;;;;17.75;17.25;;;;;;;;4993345;27;51745;-47
2022/11/28 13:38:52;;;;;;;;;19.25;19.25;;;;;;;;4992010;28;51495;-48
2022/11/28 13:41:40;;;;;;;;;20.50;19.00;;;;;;;;4997549;28;51131;-47
2022/11/28 13:44:30;;;;;;;;;21.25;19.50;;;;;;;;4994911;28;51460;-49
2022/11/28 13:47:20;;;;;;;;;21.25;21.25;;;;;;;;4997405;28;51180;-48
2022/11/28 13:50:23;;;;;;;;;23.00;18.25;;;;;;;;4995792;28;51169;-49
2022/11/28 13:53:10;;;;;;;;;23.75;20.00;;;;;;;;4997743;28;51127;-49
2022/11/28 13:56:14;;;;;;;;;20.50;20.00;;;;;;;;4995326;28;51424;-48
2022/11/28 13:59:00;;;;;;;;;19.00;15.25;;;;;;;;4994338;28;51048;-47
2022/11/28 14:01:46;;;;;;;;;30.50;20.50;;;;;;;;4997517;28;51576;-47
2022/11/28 14:04:31;;;;;;;;;22.00;20.25;;;;;;;;4997489;28;51346;-46
2022/11/28 14:07:22;;;;;;;;;29.00;22.00;;;;;;;;4997917;28;51145;-48
2022/11/28 14:10:21;;;;;;;;;29.00;25.00;;;;;;;;4995505;28;51105;-47
2022/11/28 14:13:12;;;;;;;;;28.25;22.75;;;;;;;;4995032;28;51252;-48
2022/11/28 14:16:15;;;;;;;;;27.50;21.25;;;;;;;;4981189;28;51082;-48
2022/11/28 14:19:22;;;;;;;;;29.25;25.50;;;;;;;;4996830;28;51260;-48
2022/11/28 14:22:15;;;;;;;;;22.75;20.50;;;;;;;;4995169;28;51079;-47
2022/11/28 14:25:09;;;;;;;;;26.75;22.75;;;;;;;;4996732;28;51192;-48
2022/11/28 14:27:56;;;;;;;;;20.75;18.75;;;;;;;;4995780;28;51107;-51
2022/11/28 14:30:42;;;;;;;;;32.00;25.00;;;;;;;;4996360;28;51085;-47
2022/11/28 14:33:37;;;;;;;;;28.00;22.50;;;;;;;;4994862;28;51163;-48
2022/11/28 14:36:35;;;;;;;;;26.75;24.50;;;;;;;;4996503;28;51508;-47
2022/11/28 14:39:33;;;;;;;;;28.75;22.50;;;;;;;;4996484;27;51255;-47
2022/11/28 14:42:34;;;;;;;;;22.25;16.00;;;;;;;;5004981;28;51147;-49
2022/11/28 14:45:54;;;;;;;;;21.50;20.50;;;;;;;;4996602;27;51468;-48
2022/11/28 14:48:41;;;;;;;;;27.75;25.50;;;;;;;;4955134;28;51647;-49
2022/11/28 14:51:44;;;;;;;;;19.00;17.75;;;;;;;;4995608;28;51414;-47
2022/11/28 14:54:35;;;;;;;;;25.00;21.00;;;;;;;;4996878;27;51324;-48
2022/11/28 14:57:31;;;;;;;;;31.00;22.50;;;;;;;;4995564;28;51081;-50
2022/11/28 15:00:21;;;;;;;;;20.75;20.50;;;;;;;;4990362;27;51317;-49
2022/11/28 15:03:06;;;;;;;;;24.75;22.00;;;;;;;;4995034;27;51575;-46
2022/11/28 15:06:13;;;;;;;;;22.00;19.75;;;;;;;;4994155;28;51116;-49
2022/11/28 15:09:04;;;;;;;;;20.75;17.75;;;;;;;;4994251;28;51272;-48
2022/11/28 15:12:10;;;;;;;;;28.50;23.75;;;;;;;;5022049;28;51616;-47
2022/11/28 15:14:56;;;;;;;;;26.75;21.25;;;;;;;;5015029;28;51135;-48
2022/11/28 15:17:43;;;;;;;;;30.50;26.50;;;;;;;;4995636;27;51010;-47
2022/11/28 15:20:27;;;;;;;;;22.75;16.75;;;;;;;;4996856;28;51095;-49
2022/11/28 15:23:25;;;;;;;;;20.50;18.75;;;;;;;;4996506;28;51115;-48
2022/11/28 15:26:17;;;;;;;;;17.25;16.25;;;;;;;;4996459;28;51303;-49
2022/11/28 15:29:09;;;;;;;;;24.00;22.50;;;;;;;;4996070;28;51453;-48
2022/11/28 15:31:54;;;;;;;;;19.75;17.75;;;;;;;;4996079;28;51514;-51
2022/11/28 15:34:39;;;;;;;;;20.25;18.75;;;;;;;;4997005;28;50982;-47
2022/11/28 15:37:26;;;;;;;;;28.25;17.75;;;;;;;;4996044;28;51206;-48
2022/11/28 15:40:16;;;;;;;;;18.75;17.50;;;;;;;;4996127;28;51203;-47
2022/11/28 15:43:02;;;;;;;;;25.00;21.00;;;;;;;;4981226;28;51303;-49
2022/11/28 15:45:57;;;;;;;;;23.00;21.00;;;;;;;;4996472;28;51134;-48
2022/11/28 15:48:48;;;;;;;;;22.75;19.00;;;;;;;;4995586;28;51446;-48
2022/11/28 15:51:34;;;;;;;;;19.00;15.00;;;;;;;;4996184;28;51090;-49
2022/11/28 15:54:27;;;;;;;;;23.00;18.25;;;;;;;;5001733;28;51333;-48
2022/11/28 15:57:22;;;;;;;;;24.00;19.75;;;;;;;;5015878;28;51166;-48
2022/11/28 16:00:11;;;;;;;;;30.75;26.00;;;;;;;;5025141;27;51152;-47
2022/11/28 16:02:56;;;;;;;;;25.75;21.25;;;;;;;;4997436;28;51499;-49
2022/11/28 16:05:42;;;;;;;;;17.25;16.25;;;;;;;;4998418;28;51785;-48
2022/11/28 16:08:29;;;;;;;;;25.50;19.75;;;;;;;;4998028;28;51197;-48
2022/11/28 16:11:16;;;;;;;;;17.00;15.25;;;;;;;;4999615;28;51239;-49
2022/11/28 16:14:05;;;;;;;;;28.25;26.75;;;;;;;;4997641;28;51140;-47
2022/11/28 16:16:50;;;;;;;;;27.00;23.50;;;;;;;;4997687;28;51070;-49
2022/11/28 16:19:36;;;;;;;;;36.00;30.50;;;;;;;;4997729;28;51160;-49
2022/11/28 16:22:22;;;;;;;;;54.00;43.00;;;;;;;;4997783;28;51148;-49